Αρχική σελίδα
METAR-TAF:

METAR-TAF

Αεροδρόμια :

Λαμπεντούζα, Ιταλία

γεωγραφικό πλάτος: 35-30N, γεωγραφικό μήκος: 012-36E, υψόμετρο: 16 μ

Παρών καιρός

Η αναφορά έγινε 4 ώρες και 10 λεπτά πριν, στις 19:50 UTC
Άνεμος 9 kt από Β/BA
Θερμοκρασία 27°C
Υγρασία 89%
Πίεση 1013 hPa
Ορατότητα 10 χλμ και άνω
Δεν υπάρχουν νέφη με βάση κάτω από τα 1500 μ. και δεν υπάρχουν νέφη σωρειτομελανίτες.

METAR: LICD 221950Z 03009KT CAVOK 27/25 Q1013

Χρόνος: 02:00 (00:00 UTC)

Πρόγνωση Καιρού

Η αναφορά έγινε 1 ώρα και 0 λεπτά πριν, στις 23:00 UTC
Η πρόγνωση ισχύει από τις 23 στις 00 UTC έως τις 23 στις 24 UTC
Άνεμος 12 kt από Β
Ορατότητα 10 χλμ και άνω
Λίγα νέφη σε ύψος 3000 πόδια
Καθιστάμενος
από 23 στις 06 UTC έως τις 23 στις 08 UTC
Άνεμος 15 kt από Β με ριπές μέχρι 28 kt

TAF: LICD 222300Z 2300/2324 35012KT 9999 FEW030 BECMG 2306/2308 35015G28KT

Μετεωρολογικές αναφορές και προγνώσεις για περισσότερα από 4000 αεροδρόμια (δελτία METAR και TAF).

Οι διαθέσιμοι σταθμοί απεικονίζονται στο χάρτη με κίτρινες και κόκκινες κουκκίδες.

Μετακινήστε το ποντίκι πάνω από τις κουκκίδες για να δείτε το όνομα του σταθμού.

Στη συνέχεια, κάντε κλικ για να δείτε τις μετεωρολογικές αναφορές και τις προγνώσεις καιρού.

Για να αλλάξετε το χάρτη: κάντε κλικ στα πράσινα κουμπιά με τον μαύρο σταυρό για να ζουμάρετε, στο πράσινο κουμπί με την παύλα για να αφαιρέσετε το ζουμ ή στα πράσινα βέλη για να αντιπαραβάλλετε χάρτες.


METAR-TAF: